sensor_id;sensor_type;location;lat;lon;timestamp;pressure;altitude;pressure_sealevel;temperature;humidity
12146;BME280;6136;47.032;15.398;2023-02-22T00:00:57;97592.00;;;3.84;100.00
12146;BME280;6136;47.032;15.398;2023-02-22T00:03:33;97594.63;;;3.84;100.00
12146;BME280;6136;47.032;15.398;2023-02-22T00:06:03;97587.03;;;3.76;100.00
12146;BME280;6136;47.032;15.398;2023-02-22T00:08:34;97589.53;;;3.79;100.00
12146;BME280;6136;47.032;15.398;2023-02-22T00:11:05;97596.63;;;3.77;100.00
12146;BME280;6136;47.032;15.398;2023-02-22T00:13:35;97587.94;;;3.75;100.00
12146;BME280;6136;47.032;15.398;2023-02-22T00:16:04;97587.09;;;3.75;100.00
12146;BME280;6136;47.032;15.398;2023-02-22T00:18:32;97590.69;;;3.71;100.00
12146;BME280;6136;47.032;15.398;2023-02-22T00:21:00;97587.31;;;3.69;100.00
12146;BME280;6136;47.032;15.398;2023-02-22T00:23:30;97588.16;;;3.69;100.00
12146;BME280;6136;47.032;15.398;2023-02-22T00:25:59;97583.09;;;3.63;100.00
12146;BME280;6136;47.032;15.398;2023-02-22T00:28:27;97586.75;;;3.59;100.00
12146;BME280;6136;47.032;15.398;2023-02-22T00:30:56;97589.41;;;3.58;100.00
12146;BME280;6136;47.032;15.398;2023-02-22T00:33:25;97587.66;;;3.58;100.00
12146;BME280;6136;47.032;15.398;2023-02-22T00:35:54;97591.34;;;3.53;100.00
12146;BME280;6136;47.032;15.398;2023-02-22T00:38:22;97586.09;;;3.53;100.00
12146;BME280;6136;47.032;15.398;2023-02-22T00:40:50;97594.06;;;3.49;100.00
12146;BME280;6136;47.032;15.398;2023-02-22T00:43:20;97575.19;;;3.40;100.00
12146;BME280;6136;47.032;15.398;2023-02-22T00:45:48;97587.31;;;3.42;100.00
12146;BME280;6136;47.032;15.398;2023-02-22T00:48:16;97594.47;;;3.37;100.00
12146;BME280;6136;47.032;15.398;2023-02-22T00:50:45;97593.66;;;3.35;100.00
12146;BME280;6136;47.032;15.398;2023-02-22T00:53:15;97595.38;;;3.36;100.00
12146;BME280;6136;47.032;15.398;2023-02-22T00:55:43;97592.97;;;3.30;100.00
12146;BME280;6136;47.032;15.398;2023-02-22T00:58:11;97592.94;;;3.32;100.00
12146;BME280;6136;47.032;15.398;2023-02-22T01:00:41;97593.88;;;3.29;100.00
12146;BME280;6136;47.032;15.398;2023-02-22T01:03:12;97591.50;;;3.22;100.00
12146;BME280;6136;47.032;15.398;2023-02-22T01:05:42;97592.66;;;3.13;100.00
12146;BME280;6136;47.032;15.398;2023-02-22T01:08:11;97601.25;;;3.18;100.00
12146;BME280;6136;47.032;15.398;2023-02-22T01:10:40;97595.19;;;3.16;100.00
12146;BME280;6136;47.032;15.398;2023-02-22T01:13:09;97600.47;;;3.15;100.00
12146;BME280;6136;47.032;15.398;2023-02-22T01:15:39;97599.59;;;3.14;100.00
12146;BME280;6136;47.032;15.398;2023-02-22T01:18:10;97599.72;;;3.11;100.00
12146;BME280;6136;47.032;15.398;2023-02-22T01:20:43;97603.25;;;3.10;100.00
12146;BME280;6136;47.032;15.398;2023-02-22T01:23:14;97598.09;;;3.07;100.00
12146;BME280;6136;47.032;15.398;2023-02-22T01:25:43;97598.19;;;3.04;100.00
12146;BME280;6136;47.032;15.398;2023-02-22T01:28:13;97593.88;;;3.03;100.00
12146;BME280;6136;47.032;15.398;2023-02-22T01:30:41;97595.56;;;3.04;100.00
12146;BME280;6136;47.032;15.398;2023-02-22T01:33:11;97594.00;;;2.98;100.00
12146;BME280;6136;47.032;15.398;2023-02-22T01:35:42;97600.22;;;2.96;100.00
12146;BME280;6136;47.032;15.398;2023-02-22T01:38:12;97595.97;;;2.92;100.00
12146;BME280;6136;47.032;15.398;2023-02-22T01:40:45;97588.09;;;2.92;100.00
12146;BME280;6136;47.032;15.398;2023-02-22T01:43:16;97592.47;;;2.91;100.00
12146;BME280;6136;47.032;15.398;2023-02-22T01:45:53;97601.19;;;2.92;100.00
12146;BME280;6136;47.032;15.398;2023-02-22T01:48:28;97595.31;;;2.85;100.00
12146;BME280;6136;47.032;15.398;2023-02-22T01:50:58;97584.88;;;2.84;100.00
12146;BME280;6136;47.032;15.398;2023-02-22T01:53:32;97591.81;;;2.85;100.00
12146;BME280;6136;47.032;15.398;2023-02-22T01:56:02;97592.72;;;2.84;100.00
12146;BME280;6136;47.032;15.398;2023-02-22T01:58:33;97593.63;;;2.83;100.00
12146;BME280;6136;47.032;15.398;2023-02-22T02:01:02;97586.78;;;2.79;100.00
12146;BME280;6136;47.032;15.398;2023-02-22T02:03:34;97592.09;;;2.76;100.00
12146;BME280;6136;47.032;15.398;2023-02-22T02:06:07;97593.97;;;2.72;100.00
12146;BME280;6136;47.032;15.398;2023-02-22T02:08:44;97588.78;;;2.70;100.00
12146;BME280;6136;47.032;15.398;2023-02-22T02:11:18;97585.28;;;2.71;100.00
12146;BME280;6136;47.032;15.398;2023-02-22T02:13:49;97583.59;;;2.69;100.00
12146;BME280;6136;47.032;15.398;2023-02-22T02:16:20;97578.78;;;2.55;100.00
12146;BME280;6136;47.032;15.398;2023-02-22T02:18:50;97588.13;;;2.64;100.00
12146;BME280;6136;47.032;15.398;2023-02-22T02:21:45;97584.72;;;2.60;100.00
12146;BME280;6136;47.032;15.398;2023-02-22T02:24:38;97591.03;;;2.53;100.00
12146;BME280;6136;47.032;15.398;2023-02-22T02:27:15;97585.88;;;2.52;100.00
12146;BME280;6136;47.032;15.398;2023-02-22T02:30:15;97589.31;;;2.52;100.00
12146;BME280;6136;47.032;15.398;2023-02-22T02:32:53;97586.78;;;2.51;100.00
12146;BME280;6136;47.032;15.398;2023-02-22T02:35:33;97584.00;;;2.55;100.00
12146;BME280;6136;47.032;15.398;2023-02-22T02:38:09;97582.28;;;2.54;100.00
12146;BME280;6136;47.032;15.398;2023-02-22T02:40:46;97587.44;;;2.57;100.00
12146;BME280;6136;47.032;15.398;2023-02-22T02:43:22;97580.53;;;2.55;100.00
12146;BME280;6136;47.032;15.398;2023-02-22T02:45:55;97585.78;;;2.55;100.00
12146;BME280;6136;47.032;15.398;2023-02-22T02:48:27;97592.75;;;2.54;100.00
12146;BME280;6136;47.032;15.398;2023-02-22T02:50:59;97590.19;;;2.53;100.00
12146;BME280;6136;47.032;15.398;2023-02-22T02:53:32;97584.00;;;2.55;100.00
12146;BME280;6136;47.032;15.398;2023-02-22T02:56:01;97584.00;;;2.55;100.00
12146;BME280;6136;47.032;15.398;2023-02-22T02:58:30;97579.69;;;2.54;100.00
12146;BME280;6136;47.032;15.398;2023-02-22T03:01:00;97579.69;;;2.54;100.00
12146;BME280;6136;47.032;15.398;2023-02-22T03:03:52;97579.78;;;2.51;100.00
12146;BME280;6136;47.032;15.398;2023-02-22T03:09:40;97577.25;;;2.48;100.00
12146;BME280;6136;47.032;15.398;2023-02-22T03:12:20;97580.81;;;2.46;100.00
12146;BME280;6136;47.032;15.398;2023-02-22T03:15:03;97573.94;;;2.43;100.00
12146;BME280;6136;47.032;15.398;2023-02-22T03:17:41;97582.56;;;2.45;100.00
12146;BME280;6136;47.032;15.398;2023-02-22T03:20:19;97584.47;;;2.40;100.00
12146;BME280;6136;47.032;15.398;2023-02-22T03:22:52;97589.81;;;2.37;100.00
12146;BME280;6136;47.032;15.398;2023-02-22T03:25:29;97580.19;;;2.38;100.00
12146;BME280;6136;47.032;15.398;2023-02-22T03:28:03;97582.03;;;2.34;100.00
12146;BME280;6136;47.032;15.398;2023-02-22T03:30:36;97587.19;;;2.37;100.00
12146;BME280;6136;47.032;15.398;2023-02-22T03:33:09;97586.50;;;2.30;100.00
12146;BME280;6136;47.032;15.398;2023-02-22T03:35:43;97580.59;;;2.24;100.00
12146;BME280;6136;47.032;15.398;2023-02-22T03:38:16;97585.97;;;2.19;100.00
12146;BME280;6136;47.032;15.398;2023-02-22T03:40:49;97581.78;;;2.14;100.00
12146;BME280;6136;47.032;15.398;2023-02-22T03:43:23;97587.00;;;2.14;100.00
12146;BME280;6136;47.032;15.398;2023-02-22T03:45:56;97585.25;;;2.14;100.00
12146;BME280;6136;47.032;15.398;2023-02-22T03:48:30;97591.47;;;2.09;100.00
12146;BME280;6136;47.032;15.398;2023-02-22T03:51:05;97589.88;;;2.05;100.00
12146;BME280;6136;47.032;15.398;2023-02-22T03:53:34;97587.44;;;1.99;100.00
12146;BME280;6136;47.032;15.398;2023-02-22T03:56:07;97590.13;;;1.95;100.00
12146;BME280;6136;47.032;15.398;2023-02-22T03:58:39;97598.84;;;1.94;100.00
12146;BME280;6136;47.032;15.398;2023-02-22T04:01:11;97602.47;;;1.90;100.00
12146;BME280;6136;47.032;15.398;2023-02-22T04:03:41;97609.47;;;1.88;100.00
12146;BME280;6136;47.032;15.398;2023-02-22T04:06:12;97598.19;;;1.86;100.00
12146;BME280;6136;47.032;15.398;2023-02-22T04:08:40;97598.19;;;1.86;100.00
12146;BME280;6136;47.032;15.398;2023-02-22T04:11:10;97602.53;;;1.87;100.00
12146;BME280;6136;47.032;15.398;2023-02-22T04:13:39;97593.88;;;1.85;100.00
12146;BME280;6136;47.032;15.398;2023-02-22T04:16:08;97599.91;;;1.87;100.00
12146;BME280;6136;47.032;15.398;2023-02-22T04:18:36;97602.56;;;1.86;100.00
12146;BME280;6136;47.032;15.398;2023-02-22T04:21:05;97593.06;;;1.83;100.00
12146;BME280;6136;47.032;15.398;2023-02-22T04:23:42;97593.06;;;1.83;100.00
12146;BME280;6136;47.032;15.398;2023-02-22T04:26:12;97594.00;;;1.81;100.00
12146;BME280;6136;47.032;15.398;2023-02-22T04:28:42;97592.28;;;1.80;100.00
12146;BME280;6136;47.032;15.398;2023-02-22T04:31:16;97599.25;;;1.79;100.00
12146;BME280;6136;47.032;15.398;2023-02-22T04:33:45;97595.00;;;1.77;100.00
12146;BME280;6136;47.032;15.398;2023-02-22T04:36:17;97589.72;;;1.78;100.00
12146;BME280;6136;47.032;15.398;2023-02-22T04:38:47;97581.94;;;1.77;100.00
12146;BME280;6136;47.032;15.398;2023-02-22T04:41:16;97576.03;;;1.70;100.00
12146;BME280;6136;47.032;15.398;2023-02-22T04:43:45;97581.97;;;1.75;100.00
12146;BME280;6136;47.032;15.398;2023-02-22T04:46:20;97583.75;;;1.73;100.00
12146;BME280;6136;47.032;15.398;2023-02-22T04:48:48;97576.84;;;1.71;100.00
12146;BME280;6136;47.032;15.398;2023-02-22T04:51:20;97588.16;;;1.71;100.00
12146;BME280;6136;47.032;15.398;2023-02-22T04:54:21;97589.97;;;1.69;100.00
12146;BME280;6136;47.032;15.398;2023-02-22T04:56:50;97580.41;;;1.70;100.00
12146;BME280;6136;47.032;15.398;2023-02-22T04:59:18;97589.16;;;1.67;100.00
12146;BME280;6136;47.032;15.398;2023-02-22T05:01:53;97572.66;;;1.65;100.00
12146;BME280;6136;47.032;15.398;2023-02-22T05:04:21;97583.22;;;1.62;100.00
12146;BME280;6136;47.032;15.398;2023-02-22T05:06:49;97579.78;;;1.60;100.00
12146;BME280;6136;47.032;15.398;2023-02-22T05:09:21;97576.34;;;1.58;100.00
12146;BME280;6136;47.032;15.398;2023-02-22T05:11:50;97586.94;;;1.52;100.00
12146;BME280;6136;47.032;15.398;2023-02-22T05:14:18;97577.38;;;1.52;100.00
12146;BME280;6136;47.032;15.398;2023-02-22T05:16:47;97579.16;;;1.50;100.00
12146;BME280;6136;47.032;15.398;2023-02-22T05:19:15;97586.13;;;1.50;100.00
12146;BME280;6136;47.032;15.398;2023-02-22T05:21:43;97576.72;;;1.43;100.00
12146;BME280;6136;47.032;15.398;2023-02-22T05:24:12;97582.72;;;1.48;100.00
12146;BME280;6136;47.032;15.398;2023-02-22T05:26:41;97580.34;;;1.39;100.00
12146;BME280;6136;47.032;15.398;2023-02-22T05:29:10;97584.69;;;1.38;100.00
12146;BME280;6136;47.032;15.398;2023-02-22T05:31:38;97566.63;;;1.31;100.00
12146;BME280;6136;47.032;15.398;2023-02-22T05:34:07;97576.16;;;1.32;100.00
12146;BME280;6136;47.032;15.398;2023-02-22T05:36:36;97577.06;;;1.31;100.00
12146;BME280;6136;47.032;15.398;2023-02-22T05:39:04;97577.88;;;1.33;100.00
12146;BME280;6136;47.032;15.398;2023-02-22T05:41:32;97583.97;;;1.33;100.00
12146;BME280;6136;47.032;15.398;2023-02-22T05:44:02;97588.34;;;1.31;100.00
12146;BME280;6136;47.032;15.398;2023-02-22T05:46:30;97584.16;;;1.26;100.00
12146;BME280;6136;47.032;15.398;2023-02-22T05:48:58;97591.94;;;1.27;100.00
12146;BME280;6136;47.032;15.398;2023-02-22T05:51:27;97594.41;;;1.33;100.00
12146;BME280;6136;47.032;15.398;2023-02-22T05:53:55;97598.00;;;1.28;100.00
12146;BME280;6136;47.032;15.398;2023-02-22T05:56:26;97589.31;;;1.27;100.00
12146;BME280;6136;47.032;15.398;2023-02-22T05:58:56;97591.88;;;1.30;100.00
12146;BME280;6136;47.032;15.398;2023-02-22T06:01:25;97594.41;;;1.33;100.00
12146;BME280;6136;47.032;15.398;2023-02-22T06:03:54;97596.16;;;1.33;100.00
12146;BME280;6136;47.032;15.398;2023-02-22T06:06:22;97597.75;;;1.38;100.00
12146;BME280;6136;47.032;15.398;2023-02-22T06:08:50;97602.06;;;1.39;100.00
12146;BME280;6136;47.032;15.398;2023-02-22T06:11:18;97603.69;;;1.43;100.00
12146;BME280;6136;47.032;15.398;2023-02-22T06:13:50;97601.75;;;1.51;100.00
12146;BME280;6136;47.032;15.398;2023-02-22T06:16:18;97605.00;;;1.61;100.00
12146;BME280;6136;47.032;15.398;2023-02-22T06:18:49;97601.16;;;1.74;100.00
12146;BME280;6136;47.032;15.398;2023-02-22T06:21:17;97603.59;;;1.80;100.00
12146;BME280;6136;47.032;15.398;2023-02-22T06:23:45;97609.25;;;1.96;100.00
12146;BME280;6136;47.032;15.398;2023-02-22T06:26:15;97605.53;;;2.05;100.00
12146;BME280;6136;47.032;15.398;2023-02-22T06:28:43;97607.81;;;2.17;100.00
12146;BME280;6136;47.032;15.398;2023-02-22T06:31:12;97604.56;;;2.38;100.00
12146;BME280;6136;47.032;15.398;2023-02-22T06:33:40;97615.38;;;2.57;100.00
12146;BME280;6136;47.032;15.398;2023-02-22T06:36:10;97620.03;;;2.75;100.00
12146;BME280;6136;47.032;15.398;2023-02-22T06:38:38;97624.88;;;2.89;100.00
12146;BME280;6136;47.032;15.398;2023-02-22T06:41:07;97630.66;;;2.98;100.00
12146;BME280;6136;47.032;15.398;2023-02-22T06:43:36;97624.69;;;3.21;100.00
12146;BME280;6136;47.032;15.398;2023-02-22T06:46:08;97627.44;;;3.18;100.00
12146;BME280;6136;47.032;15.398;2023-02-22T06:48:36;97635.31;;;3.43;100.00
12146;BME280;6136;47.032;15.398;2023-02-22T06:51:06;97636.50;;;3.61;100.00
12146;BME280;6136;47.032;15.398;2023-02-22T06:53:36;97639.19;;;3.84;100.00
12146;BME280;6136;47.032;15.398;2023-02-22T06:56:05;97635.22;;;3.97;100.00
12146;BME280;6136;47.032;15.398;2023-02-22T06:58:33;97642.38;;;4.17;100.00
12146;BME280;6136;47.032;15.398;2023-02-22T07:01:01;97643.50;;;4.35;100.00
12146;BME280;6136;47.032;15.398;2023-02-22T07:03:29;97643.16;;;4.67;100.00
12146;BME280;6136;47.032;15.398;2023-02-22T07:05:58;97653.19;;;5.02;100.00
12146;BME280;6136;47.032;15.398;2023-02-22T07:08:26;97646.72;;;5.33;100.00
12146;BME280;6136;47.032;15.398;2023-02-22T07:10:56;97641.84;;;5.66;100.00
12146;BME280;6136;47.032;15.398;2023-02-22T07:13:24;97645.06;;;5.94;100.00
12146;BME280;6136;47.032;15.398;2023-02-22T07:15:52;97642.13;;;6.22;100.00
12146;BME280;6136;47.032;15.398;2023-02-22T07:18:20;97635.75;;;6.46;100.00
12146;BME280;6136;47.032;15.398;2023-02-22T07:20:49;97645.06;;;6.74;97.46
12146;BME280;6136;47.032;15.398;2023-02-22T07:23:17;97642.16;;;6.80;96.05
12146;BME280;6136;47.032;15.398;2023-02-22T07:25:46;97644.97;;;7.31;96.50
12146;BME280;6136;47.032;15.398;2023-02-22T07:28:16;97636.84;;;7.89;92.82
12146;BME280;6136;47.032;15.398;2023-02-22T07:30:44;97632.69;;;8.01;88.55
12146;BME280;6136;47.032;15.398;2023-02-22T07:33:13;97640.16;;;8.27;87.79
12146;BME280;6136;47.032;15.398;2023-02-22T07:35:43;97635.41;;;8.51;83.95
12146;BME280;6136;47.032;15.398;2023-02-22T07:38:14;97637.13;;;9.01;82.93
12146;BME280;6136;47.032;15.398;2023-02-22T07:40:44;97636.59;;;9.41;79.09
12146;BME280;6136;47.032;15.398;2023-02-22T07:43:16;97629.50;;;9.57;78.05
12146;BME280;6136;47.032;15.398;2023-02-22T07:45:45;97629.84;;;9.67;75.46
12146;BME280;6136;47.032;15.398;2023-02-22T07:48:15;97635.91;;;9.69;75.46
12146;BME280;6136;47.032;15.398;2023-02-22T07:50:44;97625.59;;;10.24;73.57
12146;BME280;6136;47.032;15.398;2023-02-22T07:53:16;97625.81;;;10.64;71.87
12146;BME280;6136;47.032;15.398;2023-02-22T07:55:45;97628.31;;;10.67;70.54
12146;BME280;6136;47.032;15.398;2023-02-22T07:58:21;97624.09;;;10.91;68.70
12146;BME280;6136;47.032;15.398;2023-02-22T08:00:50;97615.41;;;10.61;68.62
12146;BME280;6136;47.032;15.398;2023-02-22T08:03:20;97635.06;;;11.13;68.58
12146;BME280;6136;47.032;15.398;2023-02-22T08:05:51;97625.78;;;11.20;66.67
12146;BME280;6136;47.032;15.398;2023-02-22T08:08:20;97620.34;;;11.36;67.83
12146;BME280;6136;47.032;15.398;2023-02-22T08:10:49;97621.41;;;11.87;64.94
12146;BME280;6136;47.032;15.398;2023-02-22T08:13:19;97616.25;;;11.98;65.00
12146;BME280;6136;47.032;15.398;2023-02-22T08:15:50;97619.59;;;12.15;64.09
12146;BME280;6136;47.032;15.398;2023-02-22T08:18:20;97619.50;;;12.54;63.17
12146;BME280;6136;47.032;15.398;2023-02-22T08:20:50;97622.53;;;12.99;59.71
12146;BME280;6136;47.032;15.398;2023-02-22T08:23:20;97621.88;;;13.33;58.90
12146;BME280;6136;47.032;15.398;2023-02-22T08:25:51;97613.44;;;12.77;61.04
12146;BME280;6136;47.032;15.398;2023-02-22T08:28:23;97614.25;;;12.91;60.87
12146;BME280;6136;47.032;15.398;2023-02-22T08:30:51;97611.41;;;13.67;58.49
12146;BME280;6136;47.032;15.398;2023-02-22T08:33:20;97609.56;;;14.15;56.97
12146;BME280;6136;47.032;15.398;2023-02-22T08:35:49;97606.66;;;14.64;56.35
12146;BME280;6136;47.032;15.398;2023-02-22T08:38:19;97603.53;;;15.03;54.03
12146;BME280;6136;47.032;15.398;2023-02-22T08:40:48;97603.13;;;15.19;54.34
12146;BME280;6136;47.032;15.398;2023-02-22T08:43:17;97610.75;;;15.46;53.18
12146;BME280;6136;47.032;15.398;2023-02-22T08:45:48;97613.97;;;15.18;52.77
12146;BME280;6136;47.032;15.398;2023-02-22T08:48:18;97612.25;;;15.05;53.64
12146;BME280;6136;47.032;15.398;2023-02-22T08:50:46;97613.97;;;15.06;53.42
12146;BME280;6136;47.032;15.398;2023-02-22T08:53:15;97608.13;;;15.12;54.40
12146;BME280;6136;47.032;15.398;2023-02-22T08:55:44;97598.59;;;15.64;52.88
12146;BME280;6136;47.032;15.398;2023-02-22T08:58:12;97602.28;;;16.16;51.83
12146;BME280;6136;47.032;15.398;2023-02-22T09:00:41;97603.69;;;17.03;51.23
12146;BME280;6136;47.032;15.398;2023-02-22T09:03:13;97611.59;;;16.74;50.02
12146;BME280;6136;47.032;15.398;2023-02-22T09:05:42;97598.19;;;16.53;50.71
12146;BME280;6136;47.032;15.398;2023-02-22T09:08:11;97594.34;;;17.68;47.74
12146;BME280;6136;47.032;15.398;2023-02-22T09:10:39;97603.25;;;18.16;46.45
12146;BME280;6136;47.032;15.398;2023-02-22T09:13:07;97602.69;;;17.84;46.63
12146;BME280;6136;47.032;15.398;2023-02-22T09:15:36;97595.75;;;18.39;45.70
12146;BME280;6136;47.032;15.398;2023-02-22T09:18:06;97590.69;;;19.02;44.55
12146;BME280;6136;47.032;15.398;2023-02-22T09:20:36;97588.41;;;19.34;43.44
12146;BME280;6136;47.032;15.398;2023-02-22T09:23:05;97587.84;;;19.04;44.24
12146;BME280;6136;47.032;15.398;2023-02-22T09:25:35;97592.28;;;19.22;44.30
12146;BME280;6136;47.032;15.398;2023-02-22T09:28:04;97590.59;;;19.76;42.70
12146;BME280;6136;47.032;15.398;2023-02-22T09:30:34;97587.91;;;19.94;42.29
12146;BME280;6136;47.032;15.398;2023-02-22T09:33:04;97588.19;;;20.62;40.05
12146;BME280;6136;47.032;15.398;2023-02-22T09:35:37;97578.78;;;20.04;41.04
12146;BME280;6136;47.032;15.398;2023-02-22T09:38:08;97578.25;;;20.36;41.00
12146;BME280;6136;47.032;15.398;2023-02-22T09:40:40;97568.97;;;20.82;38.91
12146;BME280;6136;47.032;15.398;2023-02-22T09:43:20;97575.47;;;21.74;37.99
12146;BME280;6136;47.032;15.398;2023-02-22T09:46:04;97578.97;;;21.66;38.04
12146;BME280;6136;47.032;15.398;2023-02-22T09:48:44;97572.03;;;22.14;37.22
12146;BME280;6136;47.032;15.398;2023-02-22T09:51:20;97577.09;;;21.58;37.55
12146;BME280;6136;47.032;15.398;2023-02-22T09:53:56;97585.34;;;21.57;36.77
12146;BME280;6136;47.032;15.398;2023-02-22T09:56:26;97560.47;;;24.10;33.15
12146;BME280;6136;47.032;15.398;2023-02-22T09:59:00;97559.09;;;23.60;33.37
12146;BME280;6136;47.032;15.398;2023-02-22T10:01:31;97568.78;;;23.54;34.35
12146;BME280;6136;47.032;15.398;2023-02-22T10:04:06;97565.16;;;23.23;33.71
12146;BME280;6136;47.032;15.398;2023-02-22T10:06:47;97556.91;;;24.55;32.74
12146;BME280;6136;47.032;15.398;2023-02-22T10:09:26;97556.31;;;23.76;33.01
12146;BME280;6136;47.032;15.398;2023-02-22T10:11:57;97552.94;;;24.65;31.78
12146;BME280;6136;47.032;15.398;2023-02-22T10:14:36;97551.78;;;24.45;31.30
12146;BME280;6136;47.032;15.398;2023-02-22T10:17:17;97553.06;;;24.87;31.14
12146;BME280;6136;47.032;15.398;2023-02-22T10:20:00;97534.91;;;24.12;32.47
12146;BME280;6136;47.032;15.398;2023-02-22T10:22:48;97534.28;;;24.02;32.88
12146;BME280;6136;47.032;15.398;2023-02-22T10:25:21;97543.94;;;25.17;31.23
12146;BME280;6136;47.032;15.398;2023-02-22T10:27:55;97526.22;;;26.72;28.86
12146;BME280;6136;47.032;15.398;2023-02-22T10:30:28;97538.69;;;25.16;31.06
12146;BME280;6136;47.032;15.398;2023-02-22T10:33:04;97528.84;;;25.59;30.68
12146;BME280;6136;47.032;15.398;2023-02-22T10:35:37;97528.31;;;24.38;32.26
12146;BME280;6136;47.032;15.398;2023-02-22T10:38:14;97536.03;;;23.95;32.55
12146;BME280;6136;47.032;15.398;2023-02-22T10:40:47;97530.25;;;25.55;30.27
12146;BME280;6136;47.032;15.398;2023-02-22T10:43:16;97521.53;;;26.59;28.25
12146;BME280;6136;47.032;15.398;2023-02-22T10:45:44;97515.09;;;27.29;27.42
12146;BME280;6136;47.032;15.398;2023-02-22T10:48:15;97505.31;;;26.23;28.17
12146;BME280;6136;47.032;15.398;2023-02-22T10:50:45;97500.91;;;26.99;27.69
12146;BME280;6136;47.032;15.398;2023-02-22T10:53:15;97513.81;;;24.97;30.79
12146;BME280;6136;47.032;15.398;2023-02-22T10:56:11;97500.59;;;26.10;28.58
12146;BME280;6136;47.032;15.398;2023-02-22T10:58:48;97504.56;;;26.85;27.29
12146;BME280;6136;47.032;15.398;2023-02-22T11:01:23;97496.91;;;25.75;28.87
12146;BME280;6136;47.032;15.398;2023-02-22T11:04:02;97491.41;;;27.16;27.31
12146;BME280;6136;47.032;15.398;2023-02-22T11:06:32;97493.44;;;26.80;28.00
12146;BME280;6136;47.032;15.398;2023-02-22T11:09:20;97481.25;;;25.99;28.42
12146;BME280;6136;47.032;15.398;2023-02-22T11:11:50;97469.97;;;27.00;26.93
12146;BME280;6136;47.032;15.398;2023-02-22T11:14:34;97477.19;;;27.75;26.74
12146;BME280;6136;47.032;15.398;2023-02-22T11:17:06;97468.31;;;26.78;27.58
12146;BME280;6136;47.032;15.398;2023-02-22T11:19:36;97456.84;;;27.64;26.22
12146;BME280;6136;47.032;15.398;2023-02-22T11:22:10;97459.41;;;26.56;27.65
12146;BME280;6136;47.032;15.398;2023-02-22T11:24:46;97456.22;;;24.81;30.53
12146;BME280;6136;47.032;15.398;2023-02-22T11:27:25;97456.97;;;24.45;30.73
12146;BME280;6136;47.032;15.398;2023-02-22T11:29:59;97450.97;;;24.35;31.18
12146;BME280;6136;47.032;15.398;2023-02-22T11:32:33;97442.19;;;24.10;32.16
12146;BME280;6136;47.032;15.398;2023-02-22T11:35:28;97440.88;;;26.17;28.82
12146;BME280;6136;47.032;15.398;2023-02-22T11:38:10;97428.03;;;26.88;27.73
12146;BME280;6136;47.032;15.398;2023-02-22T11:40:41;97421.53;;;26.54;28.16
12146;BME280;6136;47.032;15.398;2023-02-22T11:43:15;97417.94;;;27.16;26.41
12146;BME280;6136;47.032;15.398;2023-02-22T11:45:57;97413.94;;;25.51;29.96
12146;BME280;6136;47.032;15.398;2023-02-22T11:48:31;97409.91;;;25.62;29.02
12146;BME280;6136;47.032;15.398;2023-02-22T11:51:11;97405.69;;;25.60;29.17
12146;BME280;6136;47.032;15.398;2023-02-22T11:53:54;97407.00;;;26.34;28.11
12146;BME280;6136;47.032;15.398;2023-02-22T11:56:30;97406.03;;;26.48;27.90
12146;BME280;6136;47.032;15.398;2023-02-22T11:59:11;97389.56;;;25.37;29.58
12146;BME280;6136;47.032;15.398;2023-02-22T12:01:46;97404.44;;;24.09;30.79
12146;BME280;6136;47.032;15.398;2023-02-22T12:04:30;97392.94;;;25.39;29.42
12146;BME280;6136;47.032;15.398;2023-02-22T12:07:19;97387.75;;;26.70;27.50
12146;BME280;6136;47.032;15.398;2023-02-22T12:09:58;97384.88;;;25.67;28.05
12146;BME280;6136;47.032;15.398;2023-02-22T12:12:37;97391.28;;;25.59;28.61
12146;BME280;6136;47.032;15.398;2023-02-22T12:15:15;97395.94;;;24.49;30.06
12146;BME280;6136;47.032;15.398;2023-02-22T12:17:53;97382.53;;;25.06;29.01
12146;BME280;6136;47.032;15.398;2023-02-22T12:20:31;97379.69;;;24.64;29.50
12146;BME280;6136;47.032;15.398;2023-02-22T12:23:09;97381.38;;;24.50;29.94
12146;BME280;6136;47.032;15.398;2023-02-22T12:25:51;97369.00;;;24.92;29.72
12146;BME280;6136;47.032;15.398;2023-02-22T12:28:31;97364.38;;;24.56;30.40
12146;BME280;6136;47.032;15.398;2023-02-22T12:31:13;97362.31;;;23.77;31.30
12146;BME280;6136;47.032;15.398;2023-02-22T12:33:49;97369.97;;;23.88;30.68
12146;BME280;6136;47.032;15.398;2023-02-22T12:36:23;97359.53;;;25.17;28.93
12146;BME280;6136;47.032;15.398;2023-02-22T12:38:56;97353.53;;;25.64;28.55
12146;BME280;6136;47.032;15.398;2023-02-22T12:41:32;97345.75;;;24.68;29.95
12146;BME280;6136;47.032;15.398;2023-02-22T12:44:07;97354.38;;;24.27;30.94
12146;BME280;6136;47.032;15.398;2023-02-22T12:46:39;97343.91;;;24.39;30.15
12146;BME280;6136;47.032;15.398;2023-02-22T12:49:14;97350.41;;;23.40;31.63
12146;BME280;6136;47.032;15.398;2023-02-22T12:51:50;97341.84;;;22.44;33.17
12146;BME280;6136;47.032;15.398;2023-02-22T12:54:27;97332.28;;;23.26;31.53
12146;BME280;6136;47.032;15.398;2023-02-22T12:57:05;97338.44;;;23.95;30.78
12146;BME280;6136;47.032;15.398;2023-02-22T12:59:40;97328.75;;;24.74;29.56
12146;BME280;6136;47.032;15.398;2023-02-22T13:02:16;97331.88;;;23.75;31.11
12146;BME280;6136;47.032;15.398;2023-02-22T13:04:46;97329.53;;;22.72;33.43
12146;BME280;6136;47.032;15.398;2023-02-22T13:07:25;97332.44;;;22.24;35.06
12146;BME280;6136;47.032;15.398;2023-02-22T13:10:19;97328.13;;;22.45;33.82
12146;BME280;6136;47.032;15.398;2023-02-22T13:12:55;97313.81;;;23.90;31.81
12146;BME280;6136;47.032;15.398;2023-02-22T13:15:36;97312.03;;;24.12;30.31
12146;BME280;6136;47.032;15.398;2023-02-22T13:18:13;97305.53;;;24.50;29.71
12146;BME280;6136;47.032;15.398;2023-02-22T13:20:47;97302.97;;;23.90;30.71
12146;BME280;6136;47.032;15.398;2023-02-22T13:23:31;97298.53;;;25.34;29.29
12146;BME280;6136;47.032;15.398;2023-02-22T13:26:11;97292.56;;;24.96;29.08
12146;BME280;6136;47.032;15.398;2023-02-22T13:28:45;97301.25;;;25.56;27.92
12146;BME280;6136;47.032;15.398;2023-02-22T13:34:36;97304.06;;;25.41;27.57